Yarmouth Port, MA (02675)

08:47 EDT le 31 octobre 2014 (GMT -0400)
WA1FSC - Yarmouth Port | Change Station
CLOSE
Current Station
Stations météorologiques personnelles
Location: Yarmouth, MA
Altitude: 33 ft
Stations météo à proximité

Alt. 33 ft 41.71 °N, 70.23 °W | Updated 14 minutes ago

Couvert
Couvert
50.9 ° F
Paraît 50.9 ° F
N
0.0
Vent Variable Vent de NNO

Aujourd'hui
Haut(e) -- | Bas -- ° F
--% Risque de précip.
Hier
Haut(e) -- | Bas -- ° F
Precip. -- pouce
7:11 AM 5:36 PM
Premier quartier, 55% visible
Pression 30.00 pouce
Visibilité 10.0 Miles terrestres
Nuages Couvert 5500 ft
Point de rosée 46 ° F
Humidité 83%
Précipitations 0.00 pouce
Profondeur de la couche neigeuse Non disponible.
UV 0 sur 12
Pollen .10 sur 12
Qualité de l'air Non disponible.
Flu Activity Non disponible.
METAR KHYA 311156Z 07004KT 10SM OVC055 11/07 A3000 RMK AO2 SLP159 T01060067 10106 20067 52008

More Conditions Fewer Conditions

Pression 30.00 pouce
Visibilité 10.0 Miles terrestres
Nuages Couvert 5500 ft
Point de rosée 46 ° F
Humidité 83%
Précipitations 0.00 pouce
Profondeur de la couche neigeuse Non disponible.
UV 0 sur 12
Pollen .10 sur 12
Qualité de l'air Non disponible.
Flu Activity Non disponible.
METAR KHYA 311156Z 07004KT 10SM OVC055 11/07 A3000 RMK AO2 SLP159 T01060067 10106 20067 52008

More Conditions Fewer Conditions

10-Day Weather Forecast

Almanac

Astronomie

Oct. 31, 2014 Lever Coucher
Temps réel
Crépuscule civil
Crépuscule nautique
Crépuscule astronomique
Lune
Durée de lumière visible
Longueur du jour
Tomorrow will be .
, % of the Moon is Illuminated

Extrêmes aujourd'hui

State Highs State Lows

Community

WunderPhotos

Upload Photos

1,766,593 Photos téléchargées !

WunderBlogs® & News

Nearby

Qualité de l'air

  Qualité de l'air Indice de la qualité de l'air Polluant
Not available.

Épaisseur de neige

Station Depth Altitude

Activité sismique

Ville Distance Mag. Time & Date
Minimum magnitude displayed is 2.5.

Températures des eaux côtières

Lieu Température

Stations météo à proximité